createdAt,value
2019-03-11T00:01:32.663Z,0.60
2019-03-11T00:04:01.363Z,0.50
2019-03-11T00:06:29.983Z,0.30
2019-03-11T00:08:58.611Z,0.43
2019-03-11T00:11:27.899Z,0.65
2019-03-11T00:13:56.548Z,0.50
2019-03-11T00:16:25.251Z,0.20
2019-03-11T00:18:53.892Z,0.70
2019-03-11T00:21:23.027Z,0.50
2019-03-11T00:23:51.739Z,0.45
2019-03-11T00:26:20.397Z,0.40
2019-03-11T00:28:49.015Z,0.43
2019-03-11T00:31:17.643Z,0.10
2019-03-11T00:33:46.279Z,0.30
2019-03-11T00:36:14.907Z,0.30
2019-03-11T00:38:43.535Z,0.80
2019-03-11T00:41:12.237Z,0.70
2019-03-11T00:43:40.791Z,0.30
2019-03-11T00:46:09.420Z,0.77
2019-03-11T00:48:38.668Z,0.30
2019-03-11T00:51:07.371Z,0.40
2019-03-11T00:53:36.091Z,0.20
2019-03-11T00:56:04.707Z,0.53
2019-03-11T00:58:33.415Z,0.47
2019-03-11T01:01:02.028Z,0.60
2019-03-11T01:03:30.649Z,0.63
2019-03-11T01:05:59.333Z,0.23
2019-03-11T01:08:29.108Z,0.28
2019-03-11T01:10:57.779Z,0.27
2019-03-11T01:13:26.394Z,0.30
2019-03-11T01:15:55.040Z,0.35
2019-03-11T01:18:23.675Z,0.30
2019-03-11T01:20:52.283Z,0.43
2019-03-11T01:23:21.603Z,0.20
2019-03-11T01:25:50.253Z,0.50
2019-03-11T01:28:18.848Z,0.68
2019-03-11T01:30:47.995Z,0.47
2019-03-11T01:33:16.619Z,0.50
2019-03-11T01:35:45.236Z,0.57
2019-03-11T01:38:14.335Z,0.40
2019-03-11T01:40:42.970Z,0.25
2019-03-11T01:43:11.579Z,0.40
2019-03-11T01:45:40.216Z,0.40
2019-03-11T01:48:08.967Z,1.30
2019-03-11T01:50:37.591Z,0.33
2019-03-11T01:53:06.318Z,0.27
2019-03-11T01:55:34.951Z,0.53
2019-03-11T01:58:03.568Z,0.42
2019-03-11T02:00:32.211Z,0.28
2019-03-11T02:03:00.819Z,0.20
2019-03-11T02:05:29.439Z,0.62
2019-03-11T02:07:58.074Z,0.30
2019-03-11T02:10:26.696Z,0.73
2019-03-11T02:12:55.733Z,0.40
2019-03-11T02:15:25.443Z,0.40
2019-03-11T02:17:54.051Z,0.20
2019-03-11T02:20:23.636Z,0.93
2019-03-11T02:22:52.355Z,0.40
2019-03-11T02:25:20.979Z,0.37
2019-03-11T02:27:49.595Z,0.90
2019-03-11T02:30:18.427Z,0.30
2019-03-11T02:32:47.036Z,0.40
2019-03-11T02:35:24.874Z,0.40
2019-03-11T02:37:53.529Z,0.70
2019-03-11T02:40:22.219Z,0.55
2019-03-11T02:42:50.874Z,1.00
2019-03-11T02:45:19.483Z,0.80
2019-03-11T02:47:48.204Z,1.12
2019-03-11T02:50:16.834Z,0.77
2019-03-11T02:52:45.480Z,1.10
2019-03-11T02:55:14.105Z,0.57
2019-03-11T02:57:42.756Z,0.30
2019-03-11T03:00:13.311Z,0.20
2019-03-11T03:03:01.231Z,0.62
2019-03-11T03:05:51.524Z,0.70
2019-03-11T03:08:20.232Z,0.50
2019-03-11T03:10:48.873Z,0.50
2019-03-11T03:13:17.516Z,0.30
2019-03-11T03:15:46.186Z,0.45
2019-03-11T03:18:14.876Z,0.70
2019-03-11T03:20:43.510Z,0.40
2019-03-11T03:23:12.140Z,0.63
2019-03-11T03:25:40.797Z,0.40
2019-03-11T03:28:09.501Z,0.30
2019-03-11T03:30:39.393Z,0.30
2019-03-11T03:33:08.028Z,0.27
2019-03-11T03:35:36.651Z,0.25
2019-03-11T03:38:05.272Z,0.30
2019-03-11T03:40:33.899Z,0.60
2019-03-11T03:43:02.619Z,0.70
2019-03-11T03:45:32.958Z,0.30
2019-03-11T03:48:01.648Z,0.75
2019-03-11T03:50:33.063Z,0.33
2019-03-11T03:53:01.700Z,0.10
2019-03-11T03:55:30.351Z,0.17
2019-03-11T03:57:58.967Z,0.57
2019-03-11T04:00:27.606Z,0.70
2019-03-11T04:02:56.229Z,0.47
2019-03-11T04:05:24.928Z,0.37
2019-03-11T04:07:53.504Z,0.20
2019-03-11T04:10:22.218Z,0.25
2019-03-11T04:12:50.848Z,0.33
2019-03-11T04:15:19.669Z,0.88
2019-03-11T04:17:48.375Z,0.10
2019-03-11T04:20:17.624Z,0.30
2019-03-11T04:22:46.343Z,0.40
2019-03-11T04:25:15.218Z,0.72
2019-03-11T04:27:44.801Z,0.35
2019-03-11T04:30:16.155Z,0.40
2019-03-11T04:32:44.767Z,0.30
2019-03-11T04:35:13.381Z,0.80
2019-03-11T04:37:42.103Z,0.40
2019-03-11T04:40:11.191Z,0.37
2019-03-11T04:42:39.807Z,0.40
2019-03-11T04:45:08.879Z,0.40
2019-03-11T04:47:37.499Z,0.63
2019-03-11T04:50:06.719Z,0.20
2019-03-11T04:52:35.442Z,0.40
2019-03-11T04:55:04.435Z,0.15
2019-03-11T04:57:39.503Z,0.10
2019-03-11T05:00:08.315Z,0.30
2019-03-11T05:02:38.011Z,0.60
2019-03-11T05:05:06.654Z,0.30
2019-03-11T05:07:35.355Z,0.62
2019-03-11T05:10:04.311Z,0.33
2019-03-11T05:12:32.927Z,0.90
2019-03-11T05:15:01.615Z,0.28
2019-03-11T05:17:30.235Z,0.37
2019-03-11T05:19:58.975Z,0.63
2019-03-11T05:22:27.611Z,0.70
2019-03-11T05:24:56.237Z,1.20
2019-03-11T05:27:26.047Z,0.67
2019-03-11T05:29:54.657Z,0.72
2019-03-11T05:32:24.104Z,0.82
2019-03-11T05:34:52.740Z,0.50
2019-03-11T05:37:21.432Z,0.15
2019-03-11T05:39:50.051Z,0.17
2019-03-11T05:42:19.179Z,0.55
2019-03-11T05:44:47.801Z,0.63
2019-03-11T05:47:16.429Z,0.30
2019-03-11T05:49:45.051Z,0.20
2019-03-11T05:52:14.199Z,0.60
2019-03-11T05:54:42.832Z,1.40
2019-03-11T05:57:11.451Z,1.10
2019-03-11T05:59:40.107Z,0.63
2019-03-11T06:02:08.803Z,1.60
2019-03-11T06:04:37.429Z,1.12
2019-03-11T06:07:06.073Z,0.95
2019-03-11T06:09:34.697Z,0.30
2019-03-11T06:12:03.320Z,0.57
2019-03-11T06:14:32.626Z,0.95
2019-03-11T06:17:01.618Z,1.07
2019-03-11T06:19:32.023Z,0.80
2019-03-11T06:22:31.807Z,1.17
2019-03-11T06:25:00.508Z,1.20
2019-03-11T06:27:30.115Z,0.90
2019-03-11T06:29:58.759Z,0.60
2019-03-11T06:32:27.363Z,1.20
2019-03-11T06:34:55.987Z,1.02
2019-03-11T06:37:24.619Z,1.43
2019-03-11T06:39:53.271Z,1.70
2019-03-11T06:42:21.905Z,2.00
2019-03-11T06:44:50.533Z,2.37
2019-03-11T06:47:19.732Z,2.50
2019-03-11T06:49:48.359Z,2.95
2019-03-11T06:52:16.993Z,3.37
2019-03-11T06:54:45.622Z,2.83
2019-03-11T06:57:14.249Z,2.93
2019-03-11T06:59:42.879Z,3.50
2019-03-11T07:02:11.495Z,3.27
2019-03-11T07:04:40.127Z,4.45
2019-03-11T07:07:08.751Z,3.87
2019-03-11T07:09:37.371Z,4.43
2019-03-11T07:12:06.104Z,4.63
2019-03-11T07:14:34.759Z,4.00
2019-03-11T07:17:03.528Z,4.50
2019-03-11T07:19:32.175Z,4.70
2019-03-11T07:22:00.800Z,4.10
2019-03-11T07:24:29.473Z,4.70
2019-03-11T07:26:58.121Z,3.75
2019-03-11T07:29:26.742Z,5.00
2019-03-11T07:31:55.640Z,4.73
2019-03-11T07:34:25.348Z,4.67
2019-03-11T07:36:55.053Z,4.85
2019-03-11T07:39:23.781Z,4.53
2019-03-11T07:41:52.411Z,4.62
2019-03-11T07:44:21.039Z,4.62
2019-03-11T07:46:49.668Z,4.93
2019-03-11T07:49:18.304Z,4.50
2019-03-11T07:51:46.983Z,4.97
2019-03-11T07:54:15.607Z,4.50
2019-03-11T07:56:44.272Z,5.07
2019-03-11T07:59:12.907Z,4.47
2019-03-11T08:01:41.615Z,3.50
2019-03-11T08:04:10.235Z,4.33
2019-03-11T08:06:38.885Z,4.40
2019-03-11T08:09:07.655Z,3.85
2019-03-11T08:11:37.256Z,3.70
2019-03-11T08:14:05.859Z,3.27
2019-03-11T08:16:34.895Z,4.33
2019-03-11T08:19:03.542Z,2.93
2019-03-11T08:21:32.258Z,3.60
2019-03-11T08:24:00.888Z,3.15
2019-03-11T08:26:29.671Z,2.87
2019-03-11T08:28:58.315Z,2.67
2019-03-11T08:31:26.928Z,2.25
2019-03-11T08:33:55.565Z,1.50
2019-03-11T08:36:24.487Z,1.60
2019-03-11T08:38:53.103Z,1.00
2019-03-11T08:41:21.764Z,0.82
2019-03-11T08:43:50.391Z,1.77
2019-03-11T08:46:19.003Z,1.33
2019-03-11T08:48:47.718Z,1.42
2019-03-11T08:51:16.345Z,0.98
2019-03-11T08:53:44.969Z,1.37
2019-03-11T08:56:13.615Z,1.40
2019-03-11T08:58:42.266Z,2.20
2019-03-11T09:01:10.883Z,1.42
2019-03-11T09:03:39.507Z,1.50
2019-03-11T09:06:08.207Z,1.37
2019-03-11T09:08:36.858Z,1.52
2019-03-11T09:11:05.619Z,1.85
2019-03-11T09:13:34.239Z,1.00
2019-03-11T09:16:02.879Z,1.65
2019-03-11T09:18:32.233Z,1.20
2019-03-11T09:21:00.859Z,1.10
2019-03-11T09:23:29.491Z,1.23
2019-03-11T09:25:58.132Z,0.93
2019-03-11T09:28:26.905Z,1.30
2019-03-11T09:30:55.776Z,1.03
2019-03-11T09:33:24.570Z,1.15
2019-03-11T09:35:53.175Z,1.00
2019-03-11T09:38:22.499Z,1.17
2019-03-11T09:40:51.171Z,1.30
2019-03-11T09:43:19.885Z,0.43
2019-03-11T09:45:49.172Z,1.10
2019-03-11T09:48:17.812Z,1.52
2019-03-11T09:50:46.495Z,1.43
2019-03-11T09:53:15.126Z,1.67
2019-03-11T09:55:43.837Z,0.60
2019-03-11T09:58:12.444Z,1.13
2019-03-11T10:00:41.774Z,0.97
2019-03-11T10:03:10.493Z,1.35
2019-03-11T10:05:39.115Z,1.80
2019-03-11T10:08:07.817Z,1.40
2019-03-11T10:10:36.456Z,1.30
2019-03-11T10:13:05.108Z,1.17
2019-03-11T10:15:33.760Z,0.73
2019-03-11T10:18:02.382Z,1.13
2019-03-11T10:20:30.996Z,1.20
2019-03-11T10:22:59.651Z,0.80
2019-03-11T10:25:28.259Z,1.07
2019-03-11T10:27:56.878Z,1.10
2019-03-11T10:30:25.827Z,1.40
2019-03-11T10:32:54.450Z,1.07
2019-03-11T10:35:32.372Z,0.93
2019-03-11T10:37:53.431Z,1.00
2019-03-11T10:40:23.131Z,1.43
2019-03-11T10:42:51.761Z,0.57
2019-03-11T10:45:30.389Z,0.93
2019-03-11T10:47:50.687Z,1.23
2019-03-11T10:50:19.303Z,1.00
2019-03-11T10:52:48.137Z,1.23
2019-03-11T10:55:16.779Z,1.10
2019-03-11T10:57:45.403Z,1.30
2019-03-11T11:00:15.175Z,0.90
2019-03-11T11:02:43.788Z,1.47
2019-03-11T11:05:12.411Z,0.90
2019-03-11T11:07:41.051Z,0.62
2019-03-11T11:10:09.952Z,1.43
2019-03-11T11:12:38.620Z,0.60
2019-03-11T11:15:09.992Z,0.53
2019-03-11T11:17:38.656Z,0.90
2019-03-11T11:20:07.611Z,1.37
2019-03-11T11:22:36.252Z,1.27
2019-03-11T11:25:04.995Z,1.20
2019-03-11T11:27:33.678Z,0.60
2019-03-11T11:30:02.312Z,0.95
2019-03-11T11:32:31.299Z,0.72
2019-03-11T11:35:01.604Z,0.93
2019-03-11T11:37:30.799Z,0.82
2019-03-11T11:39:59.431Z,1.03
2019-03-11T11:42:28.043Z,1.25
2019-03-11T11:44:57.263Z,1.05
2019-03-11T11:47:25.871Z,1.27
2019-03-11T11:49:54.500Z,1.07
2019-03-11T11:52:23.125Z,1.70
2019-03-11T11:54:51.755Z,0.73
2019-03-11T11:57:20.375Z,0.93
2019-03-11T11:59:54.027Z,0.75
2019-03-11T12:02:19.339Z,1.23
2019-03-11T12:04:48.040Z,0.95
2019-03-11T12:07:16.827Z,1.03
2019-03-11T12:09:45.419Z,0.73
2019-03-11T12:12:14.433Z,1.20
2019-03-11T12:14:43.084Z,1.40
2019-03-11T12:17:11.683Z,0.98
2019-03-11T12:19:40.296Z,0.53
2019-03-11T12:22:08.920Z,1.25
2019-03-11T12:24:37.538Z,0.80
2019-03-11T12:27:06.249Z,0.83
2019-03-11T12:29:34.937Z,0.80
2019-03-11T12:32:03.564Z,1.17
2019-03-11T12:34:32.204Z,0.50
2019-03-11T12:37:00.833Z,0.80
2019-03-11T12:39:29.619Z,1.20
2019-03-11T12:41:58.254Z,0.72
2019-03-11T12:44:26.867Z,1.02
2019-03-11T12:46:55.479Z,0.40
2019-03-11T12:49:24.144Z,0.67
2019-03-11T12:51:52.775Z,0.90
2019-03-11T12:54:21.479Z,0.93
2019-03-11T12:56:50.191Z,1.10
2019-03-11T12:59:18.815Z,1.50
2019-03-11T13:01:47.472Z,1.00
2019-03-11T13:04:16.131Z,1.27
2019-03-11T13:06:44.751Z,0.50
2019-03-11T13:09:14.300Z,0.53
2019-03-11T13:11:42.934Z,0.60
2019-03-11T13:14:11.557Z,0.93
2019-03-11T13:16:40.775Z,1.00
2019-03-11T13:19:13.429Z,0.82
2019-03-11T13:21:40.527Z,1.33
2019-03-11T13:24:09.211Z,1.05
2019-03-11T13:26:37.840Z,1.63
2019-03-11T13:29:06.451Z,0.90
2019-03-11T13:31:35.143Z,1.43
2019-03-11T13:34:03.788Z,1.05
2019-03-11T13:36:32.395Z,1.07
2019-03-11T13:39:01.398Z,1.47
2019-03-11T13:41:31.219Z,0.60
2019-03-11T13:44:00.423Z,1.00
2019-03-11T13:46:29.026Z,0.98
2019-03-11T13:48:57.664Z,0.60
2019-03-11T13:51:26.363Z,0.70
2019-03-11T13:53:55.079Z,1.50
2019-03-11T13:56:23.691Z,0.68
2019-03-11T13:58:52.383Z,1.10
2019-03-11T14:01:21.353Z,0.80
2019-03-11T14:03:50.143Z,0.80
2019-03-11T14:06:18.748Z,0.93
2019-03-11T14:08:47.386Z,0.60
2019-03-11T14:11:15.999Z,0.97
2019-03-11T14:13:44.615Z,0.80
2019-03-11T14:16:13.307Z,0.33
2019-03-11T14:18:41.932Z,1.03
2019-03-11T14:21:10.559Z,1.02
2019-03-11T14:23:39.211Z,0.97
2019-03-11T14:26:07.891Z,1.20
2019-03-11T14:28:36.579Z,0.83
2019-03-11T14:31:05.235Z,1.20
2019-03-11T14:33:33.859Z,0.77
2019-03-11T14:36:02.475Z,0.70
2019-03-11T14:38:31.111Z,1.05
2019-03-11T14:40:59.752Z,0.70
2019-03-11T14:43:29.097Z,1.27
2019-03-11T14:45:57.701Z,0.23
2019-03-11T14:48:26.724Z,0.57
2019-03-11T14:50:55.365Z,1.10
2019-03-11T14:53:24.317Z,1.00
2019-03-11T14:55:52.936Z,0.80
2019-03-11T14:58:29.023Z,1.62
2019-03-11T15:00:51.892Z,1.83
2019-03-11T15:03:20.596Z,1.10
2019-03-11T15:05:49.567Z,1.10
2019-03-11T15:08:18.180Z,1.03
2019-03-11T15:10:47.289Z,0.88
2019-03-11T15:13:16.958Z,1.30
2019-03-11T15:15:45.602Z,0.60
2019-03-11T15:18:14.284Z,1.20
2019-03-11T15:20:42.903Z,0.80
2019-03-11T15:23:20.462Z,1.22
2019-03-11T15:25:41.844Z,1.33
2019-03-11T15:28:10.462Z,0.67
2019-03-11T15:30:39.181Z,1.03
2019-03-11T15:33:07.793Z,1.10
2019-03-11T15:35:36.399Z,1.60
2019-03-11T15:38:05.019Z,1.57
2019-03-11T15:40:33.655Z,1.02
2019-03-11T15:43:02.267Z,1.40
2019-03-11T15:45:38.637Z,1.50
2019-03-11T15:48:01.143Z,0.25
2019-03-11T15:50:29.863Z,1.40
2019-03-11T15:52:58.479Z,0.90
2019-03-11T15:55:27.095Z,1.10
2019-03-11T15:57:55.723Z,1.22
2019-03-11T16:00:25.346Z,1.12
2019-03-11T16:02:53.948Z,0.90
2019-03-11T16:05:22.560Z,1.33
2019-03-11T16:07:51.268Z,0.62
2019-03-11T16:10:20.186Z,0.95
2019-03-11T16:12:49.137Z,0.50
2019-03-11T16:15:18.194Z,1.15
2019-03-11T16:17:46.895Z,1.00
2019-03-11T16:20:16.130Z,0.82
2019-03-11T16:22:44.795Z,0.78
2019-03-11T16:25:13.403Z,1.30
2019-03-11T16:27:42.034Z,1.30
2019-03-11T16:30:12.032Z,1.27
2019-03-11T16:32:57.130Z,0.40
2019-03-11T16:35:10.991Z,1.15
2019-03-11T16:37:39.690Z,0.90
2019-03-11T16:40:08.744Z,0.78
2019-03-11T16:42:37.978Z,0.75
2019-03-11T16:45:07.080Z,0.47
2019-03-11T16:47:36.816Z,1.50
2019-03-11T16:50:05.583Z,0.80
2019-03-11T16:52:34.199Z,1.12
2019-03-11T16:55:02.836Z,1.10
2019-03-11T16:57:31.463Z,1.82
2019-03-11T17:00:00.066Z,0.97
2019-03-11T17:02:28.883Z,0.90
2019-03-11T17:04:57.756Z,0.68
2019-03-11T17:07:26.448Z,0.50
2019-03-11T17:09:55.109Z,0.95
2019-03-11T17:12:24.332Z,1.50
2019-03-11T17:14:52.947Z,1.43
2019-03-11T17:17:21.664Z,0.55
2019-03-11T17:19:50.364Z,1.10
2019-03-11T17:22:18.975Z,0.57
2019-03-11T17:24:47.727Z,1.40
2019-03-11T17:27:16.311Z,1.30
2019-03-11T17:29:44.960Z,0.80
2019-03-11T17:32:13.659Z,1.62
2019-03-11T17:34:42.327Z,1.10
2019-03-11T17:37:12.080Z,1.57
2019-03-11T17:39:40.845Z,0.37
2019-03-11T17:42:09.463Z,1.17
2019-03-11T17:44:38.143Z,1.40
2019-03-11T17:47:06.783Z,0.23
2019-03-11T17:49:35.567Z,0.90
2019-03-11T17:52:04.301Z,1.30
2019-03-11T17:54:32.915Z,1.50
2019-03-11T17:57:01.599Z,0.50
2019-03-11T17:59:30.735Z,1.60
2019-03-11T18:02:00.559Z,1.47
2019-03-11T18:04:29.251Z,0.28
2019-03-11T18:06:58.976Z,1.50
2019-03-11T18:09:27.663Z,1.37
2019-03-11T18:11:56.672Z,1.20
2019-03-11T18:14:25.322Z,1.60
2019-03-11T18:16:54.210Z,1.70
2019-03-11T18:19:22.835Z,0.78
2019-03-11T18:21:51.517Z,1.67
2019-03-11T18:24:20.207Z,1.30
2019-03-11T18:26:48.831Z,1.55
2019-03-11T18:29:17.486Z,0.67
2019-03-11T18:31:46.083Z,1.60
2019-03-11T18:34:14.739Z,0.93
2019-03-11T18:36:43.355Z,1.27
2019-03-11T18:39:12.012Z,1.00
2019-03-11T18:41:40.708Z,1.10
2019-03-11T18:44:09.373Z,1.65
2019-03-11T18:46:37.997Z,0.98
2019-03-11T18:49:06.639Z,1.63
2019-03-11T18:51:35.256Z,1.50
2019-03-11T18:54:03.887Z,1.87
2019-03-11T18:56:32.498Z,1.70
2019-03-11T18:59:01.127Z,1.10
2019-03-11T19:01:29.770Z,1.50
2019-03-11T19:03:58.523Z,1.30
2019-03-11T19:06:27.179Z,1.43
2019-03-11T19:08:55.795Z,0.50
2019-03-11T19:11:24.378Z,1.40
2019-03-11T19:13:53.019Z,1.37
2019-03-11T19:16:21.653Z,1.43
2019-03-11T19:18:50.259Z,1.00
2019-03-11T19:21:18.943Z,0.53
2019-03-11T19:23:47.609Z,1.40
2019-03-11T19:26:16.272Z,1.30
2019-03-11T19:28:44.869Z,2.40
2019-03-11T19:31:13.639Z,1.83
2019-03-11T19:33:42.309Z,2.00
2019-03-11T19:36:11.000Z,1.77
2019-03-11T19:38:39.636Z,1.90
2019-03-11T19:41:08.402Z,1.55
2019-03-11T19:43:37.040Z,2.05
2019-03-11T19:46:05.695Z,2.12
2019-03-11T19:48:34.910Z,1.83
2019-03-11T19:51:04.583Z,2.50
2019-03-11T19:53:34.514Z,2.17
2019-03-11T19:56:03.163Z,1.98
2019-03-11T19:58:31.845Z,2.07
2019-03-11T20:01:01.149Z,2.40
2019-03-11T20:03:30.763Z,1.77
2019-03-11T20:05:59.608Z,1.53
2019-03-11T20:08:28.224Z,1.67
2019-03-11T20:10:56.880Z,2.37
2019-03-11T20:13:25.589Z,1.62
2019-03-11T20:15:54.344Z,1.97
2019-03-11T20:18:22.984Z,1.97
2019-03-11T20:20:51.645Z,2.10
2019-03-11T20:23:20.357Z,1.90
2019-03-11T20:25:49.092Z,1.90
2019-03-11T20:28:17.853Z,1.98
2019-03-11T20:30:46.447Z,1.62
2019-03-11T20:33:15.062Z,2.30
2019-03-11T20:35:43.687Z,1.90
2019-03-11T20:38:12.411Z,1.83
2019-03-11T20:40:41.133Z,1.65
2019-03-11T20:43:09.773Z,1.50
2019-03-11T20:45:38.534Z,1.00
2019-03-11T20:48:07.145Z,1.77
2019-03-11T20:50:41.993Z,1.73
2019-03-11T20:53:06.169Z,2.37
2019-03-11T20:55:34.870Z,2.00
2019-03-11T20:58:03.548Z,1.87
2019-03-11T21:00:32.321Z,1.83
2019-03-11T21:03:00.938Z,1.85
2019-03-11T21:05:35.217Z,2.60
2019-03-11T21:08:02.601Z,1.47
2019-03-11T21:10:32.715Z,0.63
2019-03-11T21:13:01.358Z,1.73
2019-03-11T21:15:30.444Z,1.90
2019-03-11T21:17:59.055Z,1.87
2019-03-11T21:20:27.739Z,2.90
2019-03-11T21:25:22.005Z,2.53
2019-03-11T21:27:50.629Z,2.22
2019-03-11T21:30:19.753Z,2.05
2019-03-11T21:32:48.384Z,2.02
2019-03-11T21:35:18.294Z,2.23
2019-03-11T21:37:46.937Z,2.92
2019-03-11T21:40:16.158Z,1.82
2019-03-11T21:42:44.883Z,3.27
2019-03-11T21:45:13.812Z,2.27
2019-03-11T21:47:42.597Z,0.50
2019-03-11T21:50:14.036Z,2.00
2019-03-11T21:52:42.669Z,2.00
2019-03-11T21:55:11.288Z,0.63
2019-03-11T21:57:40.886Z,1.57
2019-03-11T22:00:10.786Z,0.97
2019-03-11T22:02:39.862Z,2.12
2019-03-11T22:05:08.487Z,2.20
2019-03-11T22:07:38.109Z,1.33
2019-03-11T22:10:06.911Z,2.87
2019-03-11T22:12:35.601Z,1.30
2019-03-11T22:15:04.247Z,0.60
2019-03-11T22:17:35.362Z,1.45
2019-03-11T22:20:03.571Z,1.85
2019-03-11T22:22:32.265Z,1.20
2019-03-11T22:25:01.369Z,2.60
2019-03-11T22:27:30.055Z,1.87
2019-03-11T22:29:59.475Z,1.05
2019-03-11T22:32:28.116Z,1.57
2019-03-11T22:34:56.727Z,1.87
2019-03-11T22:37:25.340Z,2.05
2019-03-11T22:39:53.995Z,1.27
2019-03-11T22:42:22.616Z,1.70
2019-03-11T22:44:51.228Z,1.98
2019-03-11T22:47:19.863Z,2.07
2019-03-11T22:49:48.473Z,2.58
2019-03-11T22:52:18.822Z,1.70
2019-03-11T22:54:47.579Z,1.60
2019-03-11T22:57:16.210Z,1.90
2019-03-11T22:59:44.823Z,2.10
2019-03-11T23:02:14.742Z,2.05
2019-03-11T23:04:43.351Z,1.65
2019-03-11T23:07:11.967Z,2.43
2019-03-11T23:09:40.599Z,1.62
2019-03-11T23:12:09.209Z,1.27
2019-03-11T23:14:37.823Z,2.40
2019-03-11T23:17:06.720Z,1.27
2019-03-11T23:19:35.334Z,1.87
2019-03-11T23:22:04.234Z,0.78
2019-03-11T23:24:32.877Z,0.47
2019-03-11T23:27:01.773Z,1.07
2019-03-11T23:29:30.535Z,1.20
2019-03-11T23:31:59.732Z,2.37
2019-03-11T23:34:28.340Z,1.93
2019-03-11T23:36:56.960Z,2.03
2019-03-11T23:39:25.610Z,0.55
2019-03-11T23:41:54.255Z,1.67
2019-03-11T23:44:22.880Z,1.55
2019-03-11T23:46:51.495Z,1.30
2019-03-11T23:49:20.134Z,2.03
2019-03-11T23:51:48.755Z,0.60
2019-03-11T23:54:17.387Z,1.98
2019-03-11T23:56:46.023Z,1.57
2019-03-11T23:59:14.627Z,1.47
